createdAt,value
2019-01-21T00:01:38.076Z,81.70
2019-01-21T00:04:13.410Z,81.70
2019-01-21T00:06:45.469Z,81.50
2019-01-21T00:09:23.306Z,81.80
2019-01-21T00:11:57.303Z,81.50
2019-01-21T00:14:31.185Z,81.60
2019-01-21T00:17:02.201Z,81.50
2019-01-21T00:19:35.685Z,81.50
2019-01-21T00:22:07.963Z,81.70
2019-01-21T00:24:41.961Z,81.60
2019-01-21T00:27:12.803Z,81.80
2019-01-21T00:29:43.908Z,81.80
2019-01-21T00:32:15.268Z,82.30
2019-01-21T00:34:49.696Z,81.90
2019-01-21T00:37:24.275Z,81.70
2019-01-21T00:39:55.311Z,82.40
2019-01-21T00:42:29.765Z,82.10
2019-01-21T00:45:09.668Z,82.10
2019-01-21T00:47:44.340Z,82.10
2019-01-21T00:50:21.479Z,82.10
2019-01-21T00:52:53.461Z,82.10
2019-01-21T00:55:27.638Z,82.60
2019-01-21T00:58:00.803Z,82.30
2019-01-21T01:00:38.165Z,82.40
2019-01-21T01:03:08.274Z,82.50
2019-01-21T01:05:39.188Z,82.40
2019-01-21T01:08:10.335Z,82.30
2019-01-21T01:10:46.284Z,82.90
2019-01-21T01:13:17.384Z,82.50
2019-01-21T01:15:48.084Z,82.70
2019-01-21T01:18:24.310Z,82.40
2019-01-21T01:20:58.296Z,82.70
2019-01-21T01:23:31.807Z,82.30
2019-01-21T01:26:06.383Z,82.50
2019-01-21T01:28:37.061Z,83.00
2019-01-21T01:31:08.778Z,82.60
2019-01-21T01:33:39.728Z,82.50
2019-01-21T01:36:11.199Z,82.70
2019-01-21T01:38:45.892Z,82.40
2019-01-21T01:41:18.766Z,82.60
2019-01-21T01:43:52.052Z,82.90
2019-01-21T01:46:28.504Z,82.90
2019-01-21T01:49:02.006Z,82.50
2019-01-21T01:51:47.049Z,82.40
2019-01-21T01:54:19.752Z,83.50
2019-01-21T01:56:53.324Z,84.50
2019-01-21T01:59:25.593Z,83.10
2019-01-21T02:01:56.258Z,83.00
2019-01-21T02:04:27.021Z,82.40
2019-01-21T02:06:57.806Z,82.40
2019-01-21T02:09:28.569Z,82.10
2019-01-21T02:12:04.144Z,82.50
2019-01-21T02:14:36.393Z,81.70
2019-01-21T02:17:08.061Z,81.10
2019-01-21T02:19:50.379Z,81.20
2019-01-21T02:22:23.295Z,80.60
2019-01-21T02:24:58.873Z,80.60
2019-01-21T02:28:28.122Z,80.50
2019-01-21T02:31:39.048Z,80.80
2019-01-21T02:34:41.552Z,80.30
2019-01-21T02:38:23.049Z,80.40
2019-01-21T02:43:36.000Z,80.70
2019-01-21T02:46:56.208Z,79.90
2019-01-21T02:49:52.576Z,79.70
2019-01-21T02:53:13.696Z,80.10
2019-01-21T02:56:16.355Z,80.10
2019-01-21T02:59:17.945Z,79.70
2019-01-21T03:02:26.144Z,79.50
2019-01-21T03:05:41.459Z,79.50
2019-01-21T03:09:11.415Z,79.70
2019-01-21T03:12:27.132Z,79.80
2019-01-21T03:15:26.332Z,79.70
2019-01-21T03:18:46.933Z,79.60
2019-01-21T03:21:52.071Z,79.70
2019-01-21T03:25:09.750Z,79.70
2019-01-21T03:28:17.233Z,79.60
2019-01-21T03:31:24.676Z,79.60
2019-01-21T03:34:32.642Z,79.80
2019-01-21T03:38:12.011Z,79.90
2019-01-21T03:41:14.238Z,80.10
2019-01-21T03:44:35.340Z,79.80
2019-01-21T03:48:02.334Z,79.80
2019-01-21T03:51:23.140Z,80.00
2019-01-21T03:54:10.691Z,80.40
2019-01-21T03:56:52.529Z,80.30
2019-01-21T03:59:40.031Z,80.50
2019-01-21T04:02:51.582Z,80.60
2019-01-21T04:05:42.357Z,80.40
2019-01-21T04:08:44.389Z,80.50
2019-01-21T04:11:46.101Z,80.50
2019-01-21T04:14:54.565Z,80.50
2019-01-21T04:18:00.735Z,80.10
2019-01-21T04:21:04.547Z,80.20
2019-01-21T04:24:22.427Z,80.10
2019-01-21T04:27:10.130Z,79.90
2019-01-21T04:30:31.137Z,81.10
2019-01-21T04:33:18.665Z,81.40
2019-01-21T04:36:28.793Z,80.80
2019-01-21T04:39:24.897Z,81.10
2019-01-21T04:42:07.580Z,80.60
2019-01-21T04:45:14.714Z,80.60
2019-01-21T04:48:33.036Z,80.40
2019-01-21T04:51:37.978Z,80.50
2019-01-21T04:54:53.787Z,80.50
2019-01-21T04:57:55.717Z,80.60
2019-01-21T05:01:05.019Z,80.70
2019-01-21T05:04:25.331Z,80.20
2019-01-21T05:07:46.092Z,80.00
2019-01-21T05:11:07.396Z,79.70
2019-01-21T05:14:21.470Z,80.10
2019-01-21T05:17:39.949Z,80.00
2019-01-21T05:20:44.941Z,79.80
2019-01-21T05:23:41.411Z,80.40
2019-01-21T05:26:24.235Z,79.90
2019-01-21T05:29:30.629Z,79.70
2019-01-21T05:32:31.986Z,79.70
2019-01-21T05:35:53.366Z,80.10
2019-01-21T05:39:05.204Z,80.00
2019-01-21T05:42:13.942Z,80.20
2019-01-21T05:44:56.496Z,80.40
2019-01-21T05:48:16.933Z,80.00
2019-01-21T05:51:14.946Z,80.20
2019-01-21T05:54:32.360Z,80.70
2019-01-21T05:57:39.038Z,80.30
2019-01-21T06:00:40.829Z,80.50
2019-01-21T06:03:48.246Z,80.40
2019-01-21T06:06:34.240Z,80.00
2019-01-21T06:09:32.412Z,80.20
2019-01-21T06:12:59.270Z,80.00
2019-01-21T06:16:07.696Z,80.00
2019-01-21T06:19:15.335Z,80.00
2019-01-21T06:22:29.952Z,80.50
2019-01-21T06:25:38.723Z,80.10
2019-01-21T06:29:02.012Z,80.10
2019-01-21T06:32:34.824Z,80.00
2019-01-21T06:35:31.626Z,79.70
2019-01-21T06:38:30.781Z,79.50
2019-01-21T06:41:45.253Z,79.40
2019-01-21T06:44:41.877Z,79.80
2019-01-21T06:48:02.441Z,79.90
2019-01-21T06:51:13.195Z,79.80
2019-01-21T06:54:04.028Z,79.70
2019-01-21T06:57:18.056Z,79.70
2019-01-21T07:00:22.977Z,80.10
2019-01-21T07:03:50.786Z,80.10
2019-01-21T07:07:20.647Z,80.10
2019-01-21T07:10:46.868Z,80.30
2019-01-21T07:13:54.448Z,80.30
2019-01-21T07:16:56.397Z,80.80
2019-01-21T07:20:14.146Z,79.30
2019-01-21T07:23:04.377Z,80.00
2019-01-21T07:26:21.491Z,79.80
2019-01-21T07:29:11.609Z,79.70
2019-01-21T07:32:23.191Z,79.70
2019-01-21T07:35:29.738Z,79.70
2019-01-21T07:38:28.528Z,79.50
2019-01-21T07:41:09.432Z,79.80
2019-01-21T07:44:16.032Z,79.20
2019-01-21T07:47:30.189Z,79.20
2019-01-21T07:50:30.482Z,78.80
2019-01-21T07:53:33.338Z,78.60
2019-01-21T07:56:51.108Z,78.60
2019-01-21T07:59:53.107Z,78.50
2019-01-21T08:03:06.148Z,78.50
2019-01-21T08:05:59.425Z,78.20
2019-01-21T08:09:20.677Z,78.00
2019-01-21T08:12:25.765Z,77.50
2019-01-21T08:15:40.136Z,77.30
2019-01-21T08:19:06.678Z,76.50
2019-01-21T08:22:03.712Z,76.10
2019-01-21T08:25:30.804Z,75.90
2019-01-21T08:28:43.232Z,76.40
2019-01-21T08:31:48.736Z,76.00
2019-01-21T08:34:59.163Z,75.50
2019-01-21T08:53:19.165Z,73.90
2019-01-21T09:12:14.122Z,74.10
2019-01-21T09:15:15.817Z,74.20
2019-01-21T09:18:22.045Z,72.60
2019-01-21T09:21:39.144Z,72.00
2019-01-21T09:24:56.628Z,71.90
2019-01-21T09:27:53.250Z,71.60
2019-01-21T09:31:10.190Z,71.50
2019-01-21T09:34:21.942Z,71.80
2019-01-21T09:37:17.762Z,72.50
2019-01-21T09:40:27.815Z,71.60
2019-01-21T09:43:12.347Z,71.00
2019-01-21T09:46:09.264Z,70.30
2019-01-21T09:48:38.200Z,70.70
2019-01-21T09:51:08.902Z,70.40
2019-01-21T09:53:42.330Z,70.30
2019-01-21T09:56:12.921Z,69.90
2019-01-21T09:58:45.602Z,70.30
2019-01-21T10:01:16.345Z,69.40
2019-01-21T10:03:47.041Z,69.70
2019-01-21T10:06:23.500Z,69.00
2019-01-21T10:09:20.700Z,68.80
2019-01-21T10:12:53.714Z,68.70
2019-01-21T10:15:33.505Z,68.40
2019-01-21T10:18:41.006Z,68.60
2019-01-21T10:21:45.498Z,68.40
2019-01-21T10:24:53.035Z,68.10
2019-01-21T10:27:45.233Z,67.80
2019-01-21T10:30:58.697Z,67.80
2019-01-21T10:34:10.103Z,67.50
2019-01-21T10:37:21.630Z,67.80
2019-01-21T10:40:08.007Z,67.00
2019-01-21T10:42:55.709Z,66.40
2019-01-21T10:45:52.459Z,66.30
2019-01-21T10:48:38.898Z,66.40
2019-01-21T10:51:34.486Z,65.60
2019-01-21T10:54:34.006Z,64.80
2019-01-21T10:57:42.754Z,63.50
2019-01-21T11:00:40.774Z,62.10
2019-01-21T11:03:46.488Z,61.00
2019-01-21T11:07:06.393Z,60.00
2019-01-21T11:10:24.957Z,59.40
2019-01-21T11:13:35.172Z,60.00
2019-01-21T11:16:36.732Z,59.70
2019-01-21T11:20:04.262Z,59.50
2019-01-21T11:22:43.974Z,59.50
2019-01-21T11:26:00.186Z,59.00
2019-01-21T11:28:48.397Z,58.10
2019-01-21T11:31:34.231Z,57.90
2019-01-21T11:34:34.498Z,57.60
2019-01-21T11:37:59.702Z,58.40
2019-01-21T11:40:43.772Z,57.50
2019-01-21T11:43:44.206Z,57.00
2019-01-21T11:46:56.257Z,57.00
2019-01-21T11:49:40.420Z,56.20
2019-01-21T11:52:37.123Z,55.20
2019-01-21T11:55:58.780Z,54.00
2019-01-21T11:58:42.626Z,52.90
2019-01-21T12:01:38.181Z,52.20
2019-01-21T12:04:18.657Z,51.30
2019-01-21T12:07:22.364Z,50.50
2019-01-21T12:10:49.429Z,50.30
2019-01-21T12:13:57.048Z,49.00
2019-01-21T12:17:03.782Z,48.20
2019-01-21T12:19:53.778Z,47.80
2019-01-21T12:23:00.639Z,47.70
2019-01-21T12:25:40.615Z,48.10
2019-01-21T12:29:00.025Z,47.40
2019-01-21T12:32:24.162Z,47.30
2019-01-21T12:35:13.941Z,47.20
2019-01-21T12:38:15.198Z,46.60
2019-01-21T12:41:06.229Z,46.10
2019-01-21T12:44:39.118Z,45.40
2019-01-21T12:47:24.302Z,45.00
2019-01-21T12:50:48.517Z,45.00
2019-01-21T12:53:50.220Z,45.40
2019-01-21T12:57:06.906Z,45.30
2019-01-21T13:00:02.801Z,45.80
2019-01-21T13:02:50.526Z,46.20
2019-01-21T13:05:32.454Z,45.80
2019-01-21T13:08:33.194Z,45.80
2019-01-21T13:11:34.912Z,45.30
2019-01-21T13:14:39.730Z,44.80
2019-01-21T13:17:41.793Z,44.70
2019-01-21T13:20:55.009Z,44.80
2019-01-21T13:24:15.672Z,45.40
2019-01-21T13:27:20.802Z,44.80
2019-01-21T13:30:44.739Z,44.60
2019-01-21T13:33:39.829Z,44.40
2019-01-21T13:36:47.043Z,43.90
2019-01-21T13:39:59.423Z,43.60
2019-01-21T13:43:07.254Z,43.70
2019-01-21T13:46:21.936Z,44.50
2019-01-21T13:49:07.101Z,44.20
2019-01-21T13:52:00.892Z,45.10
2019-01-21T13:55:23.701Z,46.00
2019-01-21T13:58:21.234Z,47.10
2019-01-21T14:01:16.145Z,48.70
2019-01-21T14:04:23.355Z,49.50
2019-01-21T14:07:21.841Z,50.40
2019-01-21T14:10:22.889Z,50.90
2019-01-21T14:13:26.373Z,52.00
2019-01-21T14:16:00.049Z,52.90
2019-01-21T14:19:14.466Z,54.30
2019-01-21T14:22:34.662Z,55.30
2019-01-21T14:25:42.004Z,56.30
2019-01-21T14:28:59.587Z,57.40
2019-01-21T14:32:21.377Z,58.30
2019-01-21T14:35:28.029Z,59.20
2019-01-21T14:38:48.614Z,59.80
2019-01-21T14:41:50.514Z,59.70
2019-01-21T14:45:00.933Z,59.70
2019-01-21T14:48:03.231Z,59.90
2019-01-21T14:51:01.779Z,60.50
2019-01-21T14:54:01.805Z,60.50
2019-01-21T14:57:04.039Z,60.30
2019-01-21T15:00:11.771Z,60.80
2019-01-21T15:03:15.528Z,61.10
2019-01-21T15:06:18.706Z,62.50
2019-01-21T15:09:13.431Z,62.30
2019-01-21T15:12:14.154Z,62.50
2019-01-21T15:15:17.049Z,62.90
2019-01-21T15:18:35.295Z,64.70
2019-01-21T15:21:52.925Z,64.90
2019-01-21T15:25:00.382Z,64.40
2019-01-21T15:28:11.801Z,64.90
2019-01-21T15:31:13.490Z,64.70
2019-01-21T15:34:11.074Z,65.00
2019-01-21T15:37:24.015Z,65.50
2019-01-21T15:40:40.352Z,65.80
2019-01-21T15:43:22.152Z,67.00
2019-01-21T15:46:39.772Z,66.50
2019-01-21T15:49:19.255Z,66.80
2019-01-21T15:52:37.687Z,67.00
2019-01-21T15:55:27.697Z,67.00
2019-01-21T15:58:29.822Z,67.30
2019-01-21T16:01:37.503Z,67.10
2019-01-21T16:05:04.449Z,67.80
2019-01-21T16:08:01.849Z,68.20
2019-01-21T16:11:57.800Z,68.60
2019-01-21T16:15:06.470Z,69.10
2019-01-21T16:18:18.788Z,69.10
2019-01-21T16:21:20.457Z,69.40
2019-01-21T16:24:06.734Z,70.20
2019-01-21T16:26:51.675Z,70.30
2019-01-21T16:29:43.165Z,70.30
2019-01-21T16:32:31.898Z,70.40
2019-01-21T16:35:39.929Z,71.00
2019-01-21T16:38:50.331Z,70.80
2019-01-21T16:41:46.921Z,71.00
2019-01-21T16:44:17.405Z,71.20
2019-01-21T16:46:48.255Z,71.60
2019-01-21T16:49:18.849Z,71.90
2019-01-21T16:51:49.382Z,71.50
2019-01-21T16:54:19.989Z,72.00
2019-01-21T16:56:51.012Z,71.80
2019-01-21T16:59:21.607Z,72.10
2019-01-21T17:01:52.184Z,72.20
2019-01-21T17:04:22.984Z,72.20
2019-01-21T17:06:53.798Z,72.40
2019-01-21T17:09:24.423Z,72.30
2019-01-21T17:11:55.658Z,72.40
2019-01-21T17:14:26.675Z,72.60
2019-01-21T17:16:57.788Z,72.50
2019-01-21T17:19:28.354Z,73.10
2019-01-21T17:21:58.863Z,73.70
2019-01-21T17:24:29.708Z,73.00
2019-01-21T17:27:00.153Z,73.70
2019-01-21T17:29:30.990Z,73.60
2019-01-21T17:32:01.541Z,73.50
2019-01-21T17:34:32.110Z,73.80
2019-01-21T17:37:03.008Z,73.80
2019-01-21T17:39:33.554Z,74.30
2019-01-21T17:42:04.097Z,74.20
2019-01-21T17:44:35.025Z,74.30
2019-01-21T17:47:05.965Z,74.40
2019-01-21T17:49:36.477Z,74.40
2019-01-21T17:52:06.984Z,74.40
2019-01-21T17:54:37.539Z,74.60
2019-01-21T17:57:08.027Z,74.70
2019-01-21T17:59:38.483Z,74.80
2019-01-21T18:02:09.136Z,75.00
2019-01-21T18:04:40.628Z,75.60
2019-01-21T18:07:11.157Z,76.30
2019-01-21T18:09:41.629Z,75.80
2019-01-21T18:12:12.167Z,76.10
2019-01-21T18:14:42.668Z,76.10
2019-01-21T18:17:13.178Z,76.10
2019-01-21T18:19:43.833Z,76.10
2019-01-21T18:22:14.394Z,76.90
2019-01-21T18:24:45.066Z,76.70
2019-01-21T18:27:14.602Z,76.70
2019-01-21T18:29:46.374Z,77.30
2019-01-21T18:32:19.760Z,77.80
2019-01-21T18:34:50.481Z,77.80
2019-01-21T18:37:26.642Z,77.50
2019-01-21T18:39:57.131Z,78.20
2019-01-21T18:42:28.353Z,77.70
2019-01-21T18:45:00.517Z,77.60
2019-01-21T18:47:31.070Z,77.70
2019-01-21T18:50:01.653Z,77.80
2019-01-21T18:52:33.590Z,77.70
2019-01-21T18:55:04.456Z,77.80
2019-01-21T18:57:35.022Z,78.40
2019-01-21T19:00:09.105Z,78.40
2019-01-21T19:02:39.747Z,78.70
2019-01-21T19:05:10.968Z,78.70
2019-01-21T19:08:02.313Z,78.80
2019-01-21T19:10:58.144Z,79.00
2019-01-21T19:13:35.094Z,79.20
2019-01-21T19:16:05.756Z,79.70
2019-01-21T19:18:36.277Z,79.90
2019-01-21T19:21:06.806Z,80.50
2019-01-21T19:23:37.588Z,80.50
2019-01-21T19:26:08.516Z,80.50
2019-01-21T19:28:39.220Z,80.60
2019-01-21T19:31:10.657Z,80.90
2019-01-21T19:33:41.418Z,80.90
2019-01-21T19:37:01.163Z,81.20
2019-01-21T19:39:31.717Z,80.90
2019-01-21T19:42:06.013Z,81.20
2019-01-21T19:44:36.488Z,81.10
2019-01-21T19:47:07.434Z,81.10
2019-01-21T19:49:38.048Z,81.00
2019-01-21T19:52:08.665Z,81.40
2019-01-21T19:54:39.491Z,81.30
2019-01-21T19:57:10.017Z,81.00
2019-01-21T19:59:40.959Z,81.20
2019-01-21T20:02:11.481Z,81.10
2019-01-21T20:04:42.129Z,81.10
2019-01-21T20:07:12.617Z,81.00
2019-01-21T20:09:43.218Z,81.20
2019-01-21T20:12:13.787Z,81.20
2019-01-21T20:14:44.624Z,81.30
2019-01-21T20:17:15.314Z,81.50
2019-01-21T20:19:46.131Z,81.50
2019-01-21T20:22:17.030Z,81.70
2019-01-21T20:24:47.950Z,81.70
2019-01-21T20:27:18.618Z,81.70
2019-01-21T20:29:51.540Z,81.50
2019-01-21T20:32:22.283Z,81.60
2019-01-21T20:34:53.700Z,81.50
2019-01-21T20:37:26.207Z,81.70
2019-01-21T20:39:57.019Z,81.50
2019-01-21T20:42:27.950Z,81.70
2019-01-21T20:44:58.959Z,81.60
2019-01-21T20:47:29.737Z,81.40
2019-01-21T20:50:00.587Z,81.30
2019-01-21T20:52:31.638Z,81.20
2019-01-21T20:55:02.397Z,80.90
2019-01-21T20:57:33.124Z,80.90
2019-01-21T21:00:05.295Z,80.80
2019-01-21T21:02:37.265Z,81.40
2019-01-21T21:05:09.326Z,80.90
2019-01-21T21:07:41.812Z,81.10
2019-01-21T21:10:13.881Z,81.20
2019-01-21T21:12:45.803Z,81.20
2019-01-21T21:15:41.321Z,81.30
2019-01-21T21:18:16.262Z,81.40
2019-01-21T21:20:47.934Z,81.20
2019-01-21T21:23:20.074Z,81.30
2019-01-21T21:25:51.910Z,81.40
2019-01-21T21:28:23.030Z,81.70
2019-01-21T21:30:54.249Z,81.80
2019-01-21T21:33:25.326Z,82.10
2019-01-21T21:35:56.342Z,82.00
2019-01-21T21:38:27.714Z,82.10
2019-01-21T21:40:58.794Z,82.50
2019-01-21T21:43:29.918Z,82.70
2019-01-21T21:46:00.920Z,82.90
2019-01-21T21:48:32.077Z,83.00
2019-01-21T21:51:03.334Z,83.30
2019-01-21T21:53:35.521Z,83.30
2019-01-21T21:56:06.379Z,83.10
2019-01-21T21:58:37.173Z,83.30
2019-01-21T22:01:08.501Z,83.30
2019-01-21T22:03:39.338Z,83.50
2019-01-21T22:06:10.601Z,83.30
2019-01-21T22:08:41.411Z,83.30
2019-01-21T22:11:12.279Z,83.30
2019-01-21T22:13:43.213Z,83.50
2019-01-21T22:16:15.400Z,83.70
2019-01-21T22:18:46.177Z,83.70
2019-01-21T22:21:17.055Z,83.80
2019-01-21T22:23:47.978Z,83.60
2019-01-21T22:26:18.823Z,83.80
2019-01-21T22:28:49.630Z,84.00
2019-01-21T22:31:20.483Z,83.80
2019-01-21T22:33:51.321Z,83.80
2019-01-21T22:36:22.183Z,83.80
2019-01-21T22:38:53.265Z,84.50
2019-01-21T22:41:24.114Z,84.10
2019-01-21T22:43:54.956Z,84.00
2019-01-21T22:46:25.873Z,84.00
2019-01-21T22:48:56.682Z,83.90
2019-01-21T22:51:27.902Z,83.60
2019-01-21T22:53:58.852Z,83.50
2019-01-21T22:56:29.954Z,83.70
2019-01-21T22:59:00.626Z,84.10
2019-01-21T23:01:33.335Z,83.30
2019-01-21T23:04:04.436Z,83.20
2019-01-21T23:06:35.158Z,83.20
2019-01-21T23:09:08.803Z,83.10
2019-01-21T23:11:39.550Z,83.00
2019-01-21T23:14:10.588Z,82.90
2019-01-21T23:16:41.504Z,83.20
2019-01-21T23:19:12.392Z,83.10
2019-01-21T23:21:43.179Z,83.30
2019-01-21T23:24:16.589Z,83.30
2019-01-21T23:26:46.195Z,83.20
2019-01-21T23:29:17.334Z,82.90
2019-01-21T23:31:48.053Z,83.00
2019-01-21T23:34:18.883Z,82.90
2019-01-21T23:36:50.045Z,83.00
2019-01-21T23:39:20.818Z,83.40
2019-01-21T23:41:51.527Z,83.20
2019-01-21T23:44:22.248Z,83.10
2019-01-21T23:46:52.993Z,82.90
2019-01-21T23:49:24.004Z,83.00
2019-01-21T23:51:54.664Z,83.00
2019-01-21T23:54:25.475Z,82.90
2019-01-21T23:56:56.213Z,82.70
2019-01-21T23:59:26.879Z,82.60
